createdAt,value
2023-06-18T00:01:13.149Z,23.20
2023-06-18T00:03:40.705Z,23.20
2023-06-18T00:06:08.016Z,23.20
2023-06-18T00:08:35.522Z,23.20
2023-06-18T00:11:02.787Z,23.10
2023-06-18T00:13:30.138Z,23.10
2023-06-18T00:15:57.361Z,23.10
2023-06-18T00:18:24.602Z,23.00
2023-06-18T00:20:51.918Z,23.00
2023-06-18T00:23:19.294Z,23.00
2023-06-18T00:25:46.534Z,23.00
2023-06-18T00:28:13.813Z,22.90
2023-06-18T00:30:41.315Z,22.90
2023-06-18T00:33:08.616Z,22.90
2023-06-18T00:35:36.089Z,22.90
2023-06-18T00:38:04.436Z,22.90
2023-06-18T00:40:32.028Z,22.90
2023-06-18T00:42:59.455Z,22.80
2023-06-18T00:45:30.130Z,22.80
2023-06-18T00:47:58.147Z,22.80
2023-06-18T00:50:27.781Z,22.80
2023-06-18T00:53:00.746Z,22.70
2023-06-18T00:55:31.035Z,22.70
2023-06-18T00:58:02.054Z,22.70
2023-06-18T01:00:32.167Z,22.60
2023-06-18T01:03:03.395Z,22.60
2023-06-18T01:05:32.821Z,22.60
2023-06-18T01:08:06.268Z,22.60
2023-06-18T01:10:40.012Z,22.60
2023-06-18T01:13:09.296Z,22.50
2023-06-18T01:15:37.030Z,22.50
2023-06-18T01:18:07.300Z,22.50
2023-06-18T01:20:41.981Z,22.30
2023-06-18T01:23:28.608Z,22.30
2023-06-18T01:26:00.260Z,22.20
2023-06-18T01:28:30.383Z,22.20
2023-06-18T01:30:59.493Z,22.20
2023-06-18T01:33:26.916Z,22.20
2023-06-18T01:35:55.236Z,22.20
2023-06-18T01:38:38.087Z,22.10
2023-06-18T01:41:22.894Z,22.10
2023-06-18T01:44:05.213Z,22.00
2023-06-18T01:46:33.292Z,22.00
2023-06-18T01:49:09.055Z,22.00
2023-06-18T01:51:40.840Z,22.00
2023-06-18T01:54:09.628Z,21.90
2023-06-18T01:56:37.789Z,21.90
2023-06-18T01:59:06.017Z,21.90
2023-06-18T02:01:36.049Z,21.90
2023-06-18T02:04:04.335Z,21.90
2023-06-18T02:06:32.010Z,21.80
2023-06-18T02:08:59.535Z,21.80
2023-06-18T02:11:27.083Z,21.80
2023-06-18T02:13:54.339Z,21.80
2023-06-18T02:16:21.791Z,21.80
2023-06-18T02:18:50.059Z,21.70
2023-06-18T02:21:17.468Z,21.70
2023-06-18T02:23:44.755Z,21.70
2023-06-18T02:26:14.832Z,21.60
2023-06-18T02:28:42.168Z,21.60
2023-06-18T02:31:09.690Z,21.60
2023-06-18T02:33:37.129Z,21.60
2023-06-18T02:36:04.463Z,21.50
2023-06-18T02:38:32.594Z,21.50
2023-06-18T02:40:59.900Z,21.40
2023-06-18T02:43:29.801Z,21.40
2023-06-18T02:45:57.050Z,21.40
2023-06-18T02:48:24.461Z,21.40
2023-06-18T02:50:51.719Z,21.40
2023-06-18T02:53:19.174Z,21.30
2023-06-18T02:55:47.061Z,21.30
2023-06-18T02:58:30.119Z,21.30
2023-06-18T03:01:01.155Z,21.20
2023-06-18T03:03:31.781Z,21.20
2023-06-18T03:06:00.313Z,21.20
2023-06-18T03:08:28.450Z,21.10
2023-06-18T03:10:56.898Z,21.10
2023-06-18T03:13:24.170Z,21.10
2023-06-18T03:15:54.556Z,21.10
2023-06-18T03:18:21.970Z,21.00
2023-06-18T03:20:50.948Z,21.00
2023-06-18T03:23:19.904Z,21.00
2023-06-18T03:25:49.442Z,21.00
2023-06-18T03:28:25.332Z,20.90
2023-06-18T03:30:53.278Z,21.00
2023-06-18T03:33:22.459Z,21.00
2023-06-18T03:35:51.069Z,20.90
2023-06-18T03:38:18.618Z,20.90
2023-06-18T03:40:46.023Z,20.90
2023-06-18T03:43:15.854Z,20.80
2023-06-18T03:45:44.694Z,20.80
2023-06-18T03:48:13.036Z,20.80
2023-06-18T03:50:44.629Z,20.70
2023-06-18T03:53:11.938Z,20.70
2023-06-18T03:55:42.664Z,20.70
2023-06-18T03:58:12.660Z,20.70
2023-06-18T04:00:40.438Z,20.70
2023-06-18T04:03:08.987Z,20.60
2023-06-18T04:05:36.360Z,20.60
2023-06-18T04:08:03.889Z,20.60
2023-06-18T04:10:31.288Z,20.60
2023-06-18T04:12:58.762Z,20.60
2023-06-18T04:15:26.384Z,20.60
2023-06-18T04:17:54.428Z,20.60
2023-06-18T04:20:22.319Z,20.60
2023-06-18T04:22:51.109Z,20.60
2023-06-18T04:25:20.387Z,20.60
2023-06-18T04:27:49.871Z,20.60
2023-06-18T04:30:17.171Z,20.60
2023-06-18T04:32:44.939Z,20.70
2023-06-18T04:35:13.126Z,20.60
2023-06-18T04:37:41.620Z,20.70
2023-06-18T04:40:11.686Z,20.70
2023-06-18T04:42:40.597Z,20.70
2023-06-18T04:45:11.944Z,20.80
2023-06-18T04:47:41.007Z,20.80
2023-06-18T04:50:09.686Z,20.80
2023-06-18T04:52:42.552Z,20.80
2023-06-18T04:55:10.085Z,20.90
2023-06-18T04:57:37.753Z,20.90
2023-06-18T05:00:06.052Z,20.90
2023-06-18T05:02:36.473Z,21.00
2023-06-18T05:05:04.158Z,21.00
2023-06-18T05:07:31.425Z,21.10
2023-06-18T05:09:58.789Z,21.10
2023-06-18T05:12:27.095Z,21.20
2023-06-18T05:14:55.476Z,21.20
2023-06-18T05:17:23.666Z,21.30
2023-06-18T05:19:52.188Z,21.30
2023-06-18T05:22:20.317Z,21.40
2023-06-18T05:24:47.650Z,21.40
2023-06-18T05:27:15.134Z,21.50
2023-06-18T05:29:43.566Z,21.50
2023-06-18T05:32:13.586Z,21.50
2023-06-18T05:34:41.973Z,21.60
2023-06-18T05:37:09.345Z,21.60
2023-06-18T05:39:37.195Z,21.60
2023-06-18T05:42:05.433Z,21.70
2023-06-18T05:44:32.845Z,21.70
2023-06-18T05:47:01.176Z,21.70
2023-06-18T05:49:29.604Z,21.80
2023-06-18T05:51:58.970Z,21.80
2023-06-18T05:54:26.730Z,21.80
2023-06-18T05:56:54.181Z,21.90
2023-06-18T05:59:22.500Z,21.80
2023-06-18T06:01:56.862Z,21.80
2023-06-18T06:04:25.094Z,21.90
2023-06-18T06:06:52.862Z,21.90
2023-06-18T06:09:20.372Z,22.00
2023-06-18T06:11:47.819Z,22.00
2023-06-18T06:14:15.628Z,22.10
2023-06-18T06:16:43.622Z,22.10
2023-06-18T06:19:11.442Z,22.10
2023-06-18T06:21:38.748Z,22.20
2023-06-18T06:24:07.194Z,22.20
2023-06-18T06:26:34.791Z,22.30
2023-06-18T06:29:02.225Z,22.30
2023-06-18T06:31:29.579Z,22.30
2023-06-18T06:33:57.297Z,22.40
2023-06-18T06:36:26.293Z,22.40
2023-06-18T06:38:54.921Z,22.50
2023-06-18T06:41:23.329Z,22.50
2023-06-18T06:43:50.660Z,22.60
2023-06-18T06:46:34.309Z,22.70
2023-06-18T06:49:10.459Z,22.80
2023-06-18T06:51:57.983Z,22.80
2023-06-18T06:54:25.394Z,22.90
2023-06-18T06:56:52.710Z,23.00
2023-06-18T06:59:21.122Z,23.00
2023-06-18T07:01:48.422Z,23.10
2023-06-18T07:04:15.957Z,23.10
2023-06-18T07:06:43.414Z,23.20
2023-06-18T07:09:10.758Z,23.20
2023-06-18T07:11:38.472Z,23.20
2023-06-18T07:14:06.042Z,23.30
2023-06-18T07:16:33.885Z,23.30
2023-06-18T07:19:02.421Z,23.50
2023-06-18T07:21:29.672Z,23.50
2023-06-18T07:23:57.396Z,23.60
2023-06-18T07:26:24.993Z,23.70
2023-06-18T07:28:52.240Z,23.80
2023-06-18T07:31:20.092Z,23.80
2023-06-18T07:33:47.384Z,23.90
2023-06-18T07:36:14.658Z,24.00
2023-06-18T07:38:42.025Z,24.00
2023-06-18T07:41:09.271Z,24.10
2023-06-18T07:43:36.589Z,24.20
2023-06-18T07:46:04.004Z,24.30
2023-06-18T07:48:31.570Z,24.40
2023-06-18T07:50:59.106Z,24.40
2023-06-18T07:53:26.725Z,24.50
2023-06-18T07:55:54.041Z,24.60
2023-06-18T07:58:21.533Z,24.60
2023-06-18T08:00:48.733Z,24.60
2023-06-18T08:03:16.090Z,24.70
2023-06-18T08:05:43.369Z,24.80
2023-06-18T08:08:10.707Z,24.80
2023-06-18T08:10:37.917Z,24.90
2023-06-18T08:13:06.241Z,24.90
2023-06-18T08:15:33.518Z,25.00
2023-06-18T08:18:00.768Z,25.10
2023-06-18T08:20:28.029Z,25.20
2023-06-18T08:22:56.123Z,25.30
2023-06-18T08:25:23.519Z,25.40
2023-06-18T08:27:51.349Z,25.50
2023-06-18T09:12:45.594Z,26.80
2023-06-18T09:15:14.236Z,26.90
2023-06-18T09:17:49.902Z,27.00
2023-06-18T09:20:20.608Z,27.10
2023-06-18T09:22:49.401Z,27.10
2023-06-18T09:25:24.187Z,27.20
2023-06-18T09:27:56.941Z,27.20
2023-06-18T09:30:26.997Z,27.30
2023-06-18T09:32:58.578Z,27.30
2023-06-18T09:35:26.002Z,27.40
2023-06-18T09:37:54.073Z,27.40
2023-06-18T09:40:23.214Z,27.40
2023-06-18T09:42:51.015Z,27.30
2023-06-18T09:45:20.031Z,27.30
2023-06-18T09:47:48.547Z,27.20
2023-06-18T09:50:16.001Z,27.30
2023-06-18T09:52:49.725Z,27.30
2023-06-18T09:55:28.831Z,27.20
2023-06-18T09:57:56.144Z,27.10
2023-06-18T10:00:23.865Z,27.10
2023-06-18T10:02:51.169Z,27.10
2023-06-18T10:05:18.644Z,27.20
2023-06-18T10:07:49.119Z,27.30
2023-06-18T10:10:17.622Z,27.20
2023-06-18T10:12:48.987Z,27.30
2023-06-18T10:15:17.325Z,27.40
2023-06-18T10:17:51.384Z,27.40
2023-06-18T10:20:19.447Z,27.40
2023-06-18T10:22:50.551Z,27.50
2023-06-18T10:25:18.946Z,27.50
2023-06-18T10:27:46.875Z,27.60
2023-06-18T10:30:14.746Z,27.60
2023-06-18T10:32:44.097Z,27.70
2023-06-18T10:35:14.250Z,27.70
2023-06-18T10:37:44.693Z,27.80
2023-06-18T10:40:13.259Z,27.80
2023-06-18T10:42:40.816Z,27.70
2023-06-18T10:45:18.994Z,27.80
2023-06-18T10:47:46.539Z,27.80
2023-06-18T10:50:16.769Z,27.90
2023-06-18T10:52:52.098Z,28.00
2023-06-18T10:55:19.332Z,28.10
2023-06-18T10:57:47.558Z,28.20
2023-06-18T11:00:29.926Z,28.20
2023-06-18T11:03:21.448Z,28.30
2023-06-18T11:05:50.391Z,28.40
2023-06-18T11:08:29.940Z,28.60
2023-06-18T11:11:14.060Z,28.80
2023-06-18T11:13:43.008Z,29.00
2023-06-18T11:16:10.427Z,29.20
2023-06-18T11:18:40.131Z,29.40
2023-06-18T11:21:13.862Z,29.60
2023-06-18T11:23:42.310Z,29.70
2023-06-18T11:26:15.265Z,30.00
2023-06-18T11:28:43.074Z,30.10
2023-06-18T11:31:10.747Z,30.20
2023-06-18T11:33:38.049Z,30.30
2023-06-18T11:36:13.460Z,30.40
2023-06-18T11:38:41.897Z,30.40
2023-06-18T11:41:10.062Z,30.50
2023-06-18T11:43:45.860Z,30.50
2023-06-18T11:46:35.234Z,30.60
2023-06-18T11:49:02.996Z,30.60
2023-06-18T11:51:32.431Z,30.70
2023-06-18T11:54:00.441Z,30.80
2023-06-18T11:56:30.479Z,31.00
2023-06-18T11:58:59.006Z,31.00
2023-06-18T12:01:30.720Z,31.10
2023-06-18T12:04:09.082Z,31.00
2023-06-18T12:06:37.683Z,31.00
2023-06-18T12:09:09.764Z,31.00
2023-06-18T12:11:45.815Z,31.10
2023-06-18T12:14:22.350Z,31.20
2023-06-18T12:16:57.236Z,31.30
2023-06-18T12:19:25.934Z,31.40
2023-06-18T12:21:53.382Z,31.60
2023-06-18T12:24:20.818Z,31.60
2023-06-18T12:26:48.228Z,31.70
2023-06-18T12:29:15.488Z,31.70
2023-06-18T12:31:44.553Z,31.80
2023-06-18T12:34:25.673Z,31.80
2023-06-18T12:36:56.759Z,31.80
2023-06-18T12:39:24.047Z,31.80
2023-06-18T12:41:51.255Z,31.80
2023-06-18T12:44:22.216Z,31.70
2023-06-18T12:46:50.381Z,31.60
2023-06-18T12:49:20.514Z,31.50
2023-06-18T12:51:49.598Z,31.50
2023-06-18T12:54:24.772Z,31.40
2023-06-18T12:56:55.097Z,31.30
2023-06-18T12:59:24.389Z,31.10
2023-06-18T13:01:52.044Z,31.00
2023-06-18T13:04:22.172Z,31.00
2023-06-18T13:06:51.223Z,30.90
2023-06-18T13:09:18.630Z,30.80
2023-06-18T13:11:46.318Z,30.70
2023-06-18T13:14:26.105Z,30.70
2023-06-18T13:17:03.639Z,30.70
2023-06-18T13:19:40.474Z,30.70
2023-06-18T13:22:10.813Z,30.60
2023-06-18T13:24:38.106Z,30.60
2023-06-18T13:27:05.681Z,30.50
2023-06-18T13:29:33.531Z,30.50
2023-06-18T13:32:01.901Z,30.50
2023-06-18T13:34:29.406Z,30.50
2023-06-18T13:36:56.642Z,30.40
2023-06-18T13:39:24.565Z,30.40
2023-06-18T13:41:51.818Z,30.40
2023-06-18T13:44:19.020Z,30.40
2023-06-18T13:46:46.282Z,30.40
2023-06-18T13:49:13.527Z,30.50
2023-06-18T13:51:40.723Z,30.60
2023-06-18T13:54:07.961Z,30.60
2023-06-18T13:56:35.254Z,30.70
2023-06-18T13:59:02.527Z,30.70
2023-06-18T14:01:29.789Z,30.70
2023-06-18T14:03:57.292Z,30.80
2023-06-18T14:06:25.217Z,30.80
2023-06-18T14:08:53.361Z,30.80
2023-06-18T14:11:20.782Z,30.80
2023-06-18T14:13:48.081Z,30.90
2023-06-18T14:16:15.535Z,30.80
2023-06-18T14:18:43.403Z,30.80
2023-06-18T14:21:11.183Z,30.80
2023-06-18T14:23:39.725Z,30.80
2023-06-18T14:26:08.839Z,30.80
2023-06-18T14:28:36.202Z,30.80
2023-06-18T14:31:04.041Z,30.80
2023-06-18T14:33:32.254Z,30.80
2023-06-18T14:35:59.578Z,30.80
2023-06-18T14:38:26.768Z,30.70
2023-06-18T14:40:54.139Z,30.80
2023-06-18T14:43:22.415Z,30.80
2023-06-18T14:45:49.695Z,31.00
2023-06-18T14:48:17.012Z,31.10
2023-06-18T14:50:45.363Z,31.20
2023-06-18T14:53:12.895Z,31.20
2023-06-18T14:55:41.159Z,31.30
2023-06-18T14:58:08.447Z,31.20
2023-06-18T15:00:35.723Z,31.00
2023-06-18T15:03:02.997Z,31.00
2023-06-18T15:05:30.394Z,30.80
2023-06-18T15:07:57.620Z,30.70
2023-06-18T15:10:24.927Z,30.70
2023-06-18T15:12:53.150Z,30.60
2023-06-18T15:15:20.726Z,30.50
2023-06-18T15:17:48.136Z,30.30
2023-06-18T15:20:15.391Z,30.30
2023-06-18T15:22:42.650Z,30.20
2023-06-18T15:25:10.065Z,30.10
2023-06-18T15:27:37.475Z,30.10
2023-06-18T15:30:06.625Z,30.00
2023-06-18T15:32:34.019Z,30.00
2023-06-18T15:35:01.320Z,30.10
2023-06-18T15:37:28.734Z,30.10
2023-06-18T15:39:57.388Z,30.20
2023-06-18T15:42:25.226Z,30.20
2023-06-18T15:44:52.478Z,30.30
2023-06-18T15:47:19.735Z,30.30
2023-06-18T15:49:47.071Z,30.40
2023-06-18T15:52:16.130Z,30.50
2023-06-18T15:54:43.508Z,30.60
2023-06-18T15:57:10.767Z,30.70
2023-06-18T15:59:38.070Z,30.80
2023-06-18T16:02:05.581Z,30.80
2023-06-18T16:04:33.113Z,31.00
2023-06-18T16:07:00.467Z,31.10
2023-06-18T16:09:27.812Z,31.30
2023-06-18T16:11:55.043Z,31.40
2023-06-18T16:14:22.307Z,31.60
2023-06-18T16:16:49.632Z,31.70
2023-06-18T16:19:17.656Z,31.70
2023-06-18T16:21:44.897Z,31.80
2023-06-18T16:24:12.529Z,31.90
2023-06-18T16:26:39.931Z,31.80
2023-06-18T16:29:07.156Z,31.80
2023-06-18T16:31:34.695Z,31.90
2023-06-18T16:34:01.962Z,31.90
2023-06-18T16:36:29.360Z,31.90
2023-06-18T16:38:56.609Z,31.90
2023-06-18T16:41:23.819Z,31.80
2023-06-18T16:43:51.118Z,31.70
2023-06-18T16:46:18.749Z,31.70
2023-06-18T16:48:45.998Z,31.60
2023-06-18T16:51:13.806Z,31.40
2023-06-18T16:53:41.042Z,31.40
2023-06-18T16:56:08.415Z,31.40
2023-06-18T16:58:36.274Z,31.30
2023-06-18T17:01:03.719Z,31.30
2023-06-18T17:03:31.239Z,31.20
2023-06-18T17:05:59.315Z,31.10
2023-06-18T17:08:27.402Z,31.10
2023-06-18T17:10:54.725Z,31.10
2023-06-18T17:13:22.537Z,31.10
2023-06-18T17:15:52.386Z,31.10
2023-06-18T17:18:20.581Z,31.10
2023-06-18T17:20:47.894Z,31.00
2023-06-18T17:23:15.540Z,31.00
2023-06-18T17:25:42.892Z,30.90
2023-06-18T17:28:10.338Z,30.90
2023-06-18T17:30:37.882Z,30.80
2023-06-18T17:33:05.342Z,30.70
2023-06-18T17:35:32.670Z,30.60
2023-06-18T17:37:59.865Z,30.50
2023-06-18T17:40:27.344Z,30.40
2023-06-18T17:42:57.638Z,30.40
2023-06-18T17:45:25.184Z,30.30
2023-06-18T17:47:53.389Z,30.20
2023-06-18T17:50:20.858Z,30.10
2023-06-18T17:52:49.876Z,30.00
2023-06-18T17:55:17.210Z,30.00
2023-06-18T17:57:44.670Z,29.90
2023-06-18T18:00:12.260Z,29.90
2023-06-18T18:02:39.661Z,29.90
2023-06-18T18:05:07.301Z,29.80
2023-06-18T18:07:34.564Z,29.80
2023-06-18T18:10:01.888Z,29.70
2023-06-18T18:12:29.159Z,29.70
2023-06-18T18:14:57.602Z,29.60
2023-06-18T18:17:25.018Z,29.60
2023-06-18T18:19:53.827Z,29.60
2023-06-18T18:22:21.028Z,29.50
2023-06-18T18:24:48.244Z,29.50
2023-06-18T18:27:17.163Z,29.40
2023-06-18T18:29:44.481Z,29.40
2023-06-18T18:32:11.732Z,29.40
2023-06-18T18:34:38.959Z,29.40
2023-06-18T18:37:06.619Z,29.30
2023-06-18T18:39:33.880Z,29.40
2023-06-18T18:42:01.241Z,29.30
2023-06-18T18:44:28.461Z,29.30
2023-06-18T18:46:55.996Z,29.20
2023-06-18T18:49:26.283Z,29.20
2023-06-18T18:51:54.470Z,29.10
2023-06-18T18:54:21.936Z,29.00
2023-06-18T18:56:49.742Z,29.00
2023-06-18T18:59:18.023Z,28.90
2023-06-18T19:01:45.668Z,28.90
2023-06-18T19:04:14.266Z,28.80
2023-06-18T19:06:42.043Z,28.80
2023-06-18T19:09:10.046Z,28.80
2023-06-18T19:11:37.696Z,28.80
2023-06-18T19:14:05.322Z,28.80
2023-06-18T19:16:33.257Z,28.70
2023-06-18T19:19:00.788Z,28.70
2023-06-18T19:21:28.393Z,28.70
2023-06-18T19:23:56.433Z,28.70
2023-06-18T19:26:24.149Z,28.70
2023-06-18T19:28:51.624Z,28.70
2023-06-18T19:31:19.666Z,28.60
2023-06-18T19:33:47.324Z,28.60
2023-06-18T19:36:15.196Z,28.60
2023-06-18T19:38:42.603Z,28.50
2023-06-18T19:41:09.981Z,28.50
2023-06-18T19:43:38.401Z,28.50
2023-06-18T19:46:05.777Z,28.40
2023-06-18T19:48:33.165Z,28.40
2023-06-18T19:51:00.586Z,28.40
2023-06-18T19:53:28.170Z,28.40
2023-06-18T19:55:59.227Z,28.30
2023-06-18T19:58:28.226Z,28.30
2023-06-18T20:00:55.598Z,28.30
2023-06-18T20:03:24.207Z,28.30
2023-06-18T20:05:51.863Z,28.30
2023-06-18T20:08:19.691Z,28.30
2023-06-18T20:10:47.005Z,28.30
2023-06-18T20:13:14.552Z,28.20
2023-06-18T20:15:45.723Z,28.20
2023-06-18T20:18:16.597Z,28.20
2023-06-18T20:20:44.911Z,28.20
2023-06-18T20:23:12.537Z,28.20
2023-06-18T20:25:40.470Z,28.20
2023-06-18T20:28:07.827Z,28.20
2023-06-18T20:30:35.122Z,28.20
2023-06-18T20:33:04.622Z,28.20
2023-06-18T20:35:32.146Z,28.20
2023-06-18T20:38:01.795Z,28.20
2023-06-18T20:40:29.594Z,28.20
2023-06-18T20:42:58.289Z,28.10
2023-06-18T20:45:25.583Z,28.10
2023-06-18T20:47:53.071Z,28.10
2023-06-18T20:50:20.603Z,28.10
2023-06-18T20:52:47.937Z,28.00
2023-06-18T20:55:16.616Z,28.00
2023-06-18T20:57:45.277Z,28.00
2023-06-18T21:00:14.325Z,27.90
2023-06-18T21:02:42.548Z,27.90
2023-06-18T21:05:13.162Z,27.90
2023-06-18T21:07:41.091Z,27.80
2023-06-18T21:10:09.299Z,27.80
2023-06-18T21:12:36.685Z,27.70
2023-06-18T21:15:06.066Z,27.70
2023-06-18T21:17:33.426Z,27.70
2023-06-18T21:20:01.097Z,27.70
2023-06-18T21:22:28.345Z,27.60
2023-06-18T21:24:57.084Z,27.60
2023-06-18T21:27:24.377Z,27.60
2023-06-18T21:29:51.686Z,27.50
2023-06-18T21:32:19.268Z,27.50
2023-06-18T21:34:46.571Z,27.50
2023-06-18T21:37:14.821Z,27.40
2023-06-18T21:39:42.143Z,27.30
2023-06-18T21:42:09.540Z,27.20
2023-06-18T21:44:37.021Z,27.20
2023-06-18T21:47:04.556Z,27.10
2023-06-18T21:49:32.024Z,27.10
2023-06-18T21:51:59.224Z,27.00
2023-06-18T21:54:27.786Z,27.00
2023-06-18T21:56:55.150Z,26.90
2023-06-18T21:59:23.116Z,26.90
2023-06-18T22:01:50.651Z,26.80
2023-06-18T22:04:18.572Z,26.80
2023-06-18T22:06:45.812Z,26.70
2023-06-18T22:09:13.076Z,26.70
2023-06-18T22:11:40.361Z,26.60
2023-06-18T22:14:07.704Z,26.60
2023-06-18T22:16:35.127Z,26.50
2023-06-18T22:19:14.832Z,26.60
2023-06-18T22:21:42.299Z,26.50
2023-06-18T22:24:11.209Z,26.50
2023-06-18T22:26:38.614Z,26.50
2023-06-18T22:29:06.240Z,26.40
2023-06-18T22:31:33.563Z,26.40
2023-06-18T22:34:01.479Z,26.40
2023-06-18T22:36:28.761Z,26.40
2023-06-18T22:38:56.112Z,26.40
2023-06-18T22:41:24.232Z,26.40
2023-06-18T22:43:51.522Z,26.30
2023-06-18T22:46:19.258Z,26.30
2023-06-18T22:48:47.970Z,26.20
2023-06-18T22:51:15.538Z,26.30
2023-06-18T22:53:42.783Z,26.30
2023-06-18T22:56:10.462Z,26.20
2023-06-18T22:58:37.826Z,26.10
2023-06-18T23:01:08.723Z,26.10
2023-06-18T23:03:36.467Z,26.10
2023-06-18T23:06:03.876Z,26.00
2023-06-18T23:08:31.395Z,26.00
2023-06-18T23:10:58.947Z,25.90
2023-06-18T23:13:26.379Z,25.90
2023-06-18T23:15:55.820Z,25.90
2023-06-18T23:18:26.524Z,25.90
2023-06-18T23:20:57.312Z,25.90
2023-06-18T23:23:29.885Z,25.80
2023-06-18T23:25:57.783Z,25.80
2023-06-18T23:28:25.589Z,25.80
2023-06-18T23:30:53.317Z,25.80
2023-06-18T23:33:21.241Z,25.80
2023-06-18T23:35:48.913Z,25.70
2023-06-18T23:38:16.948Z,25.70
2023-06-18T23:40:44.418Z,25.60
2023-06-18T23:43:11.785Z,25.60
2023-06-18T23:45:39.319Z,25.60
2023-06-18T23:48:06.731Z,25.60
2023-06-18T23:50:34.265Z,25.50
2023-06-18T23:53:01.713Z,25.50
2023-06-18T23:55:29.236Z,25.50
2023-06-18T23:57:56.662Z,25.40
